Aviation Digital Data Service (ADDS)

Output produced by METARs form (0237 UTC 29 July 2015)
found at http://www.aviationweather.gov/adds/metars/
 
KEWR 290232Z 2903/3006 21005KT P6SM FEW080 
     FM290600 25004KT P6SM FEW080 
     FM291100 VRB03KT P6SM FEW080 
     FM291500 18007KT P6SM FEW050 SCT250 
     FM291700 16009KT P6SM SCT050 SCT250 
     FM292300 19010KT P6SM SCT050 SCT250 
     FM300100 21008KT P6SM FEW050 SCT250